createdAt,value
2022-08-22T00:02:27.868Z,9.20
2022-08-22T00:07:47.676Z,11.70
2022-08-22T00:13:03.082Z,14.40
2022-08-22T00:18:16.859Z,13.70
2022-08-22T00:23:29.593Z,13.60
2022-08-22T00:28:41.252Z,15.80
2022-08-22T00:33:53.908Z,23.30
2022-08-22T00:39:13.307Z,21.10
2022-08-22T00:44:58.277Z,20.00
2022-08-22T00:50:34.619Z,14.70
2022-08-22T00:56:04.538Z,11.80
2022-08-22T01:01:15.905Z,11.80
2022-08-22T01:06:30.653Z,22.20
2022-08-22T01:12:12.240Z,19.30
2022-08-22T01:18:06.724Z,20.40
2022-08-22T01:23:47.795Z,24.20
2022-08-22T01:29:44.954Z,16.50
2022-08-22T01:35:10.566Z,21.90
2022-08-22T01:40:57.993Z,25.10
2022-08-22T01:46:24.735Z,28.90
2022-08-22T01:51:42.069Z,26.70
2022-08-22T01:56:50.509Z,30.20
2022-08-22T02:02:02.983Z,27.50
2022-08-22T02:07:19.863Z,26.20
2022-08-22T02:12:36.987Z,29.90
2022-08-22T02:18:02.203Z,24.80
2022-08-22T02:23:19.541Z,22.70
2022-08-22T02:28:56.943Z,33.50
2022-08-22T02:34:18.543Z,26.60
2022-08-22T02:39:35.355Z,26.10
2022-08-22T02:50:01.280Z,26.70
2022-08-22T02:55:14.620Z,34.90
2022-08-22T03:00:32.359Z,33.90
2022-08-22T03:06:01.594Z,29.60
2022-08-22T03:11:17.637Z,23.60
2022-08-22T03:16:35.334Z,28.40
2022-08-22T03:21:48.991Z,29.70
2022-08-22T03:27:07.552Z,21.60
2022-08-22T03:32:19.367Z,24.30
2022-08-22T03:37:37.929Z,28.20
2022-08-22T03:43:06.921Z,24.20
2022-08-22T03:48:48.416Z,26.40
2022-08-22T03:54:20.889Z,24.80
2022-08-22T04:00:00.426Z,26.60
2022-08-22T04:05:34.324Z,26.40
2022-08-22T04:11:12.668Z,20.90
2022-08-22T04:17:10.316Z,24.20
2022-08-22T04:27:51.020Z,19.10
2022-08-22T04:38:11.674Z,18.00
2022-08-22T04:43:25.429Z,21.00
2022-08-22T04:48:37.856Z,20.00
2022-08-22T04:54:03.584Z,19.60
2022-08-22T04:59:17.644Z,22.90
2022-08-22T05:04:29.287Z,17.60
2022-08-22T05:09:40.237Z,16.50
2022-08-22T05:14:54.390Z,18.30
2022-08-22T05:20:05.273Z,18.40
2022-08-22T05:25:16.747Z,17.60
2022-08-22T05:30:26.599Z,22.90
2022-08-22T05:35:39.114Z,22.90
2022-08-22T05:40:52.431Z,20.10
2022-08-22T05:46:01.161Z,25.60
2022-08-22T05:51:19.067Z,24.80
2022-08-22T05:56:35.990Z,20.60
2022-08-22T06:01:53.407Z,35.50
2022-08-22T06:07:06.623Z,22.80
2022-08-22T06:12:22.148Z,23.20
2022-08-22T06:17:34.963Z,20.80
2022-08-22T06:22:51.401Z,20.40
2022-08-22T06:28:00.119Z,25.90
2022-08-22T06:33:12.541Z,30.90
2022-08-22T06:38:21.983Z,24.60
2022-08-22T06:43:32.408Z,25.60
2022-08-22T06:48:39.866Z,34.00
2022-08-22T06:53:49.079Z,32.10
2022-08-22T06:58:58.888Z,29.60
2022-08-22T07:04:10.503Z,27.50
2022-08-22T07:09:31.017Z,36.90
2022-08-22T07:14:44.153Z,30.80
2022-08-22T07:20:00.212Z,33.90
2022-08-22T07:25:14.108Z,39.70
2022-08-22T07:30:27.820Z,30.60
2022-08-22T07:35:42.942Z,47.80
2022-08-22T07:41:08.777Z,44.00
2022-08-22T07:46:28.991Z,34.40
2022-08-22T07:51:46.518Z,31.20
2022-08-22T07:57:00.792Z,33.90
2022-08-22T08:02:13.571Z,34.00
2022-08-22T08:07:25.129Z,35.00
2022-08-22T08:12:35.611Z,32.80
2022-08-22T08:17:44.407Z,36.90
2022-08-22T08:22:54.284Z,35.60
2022-08-22T08:28:20.351Z,35.60
2022-08-22T08:33:33.247Z,45.10
2022-08-22T08:38:47.009Z,36.70
2022-08-22T08:44:02.773Z,41.10
2022-08-22T09:00:15.016Z,42.40
2022-08-22T09:06:09.278Z,40.30
2022-08-22T09:11:47.010Z,36.90
2022-08-22T09:17:16.545Z,45.00
2022-08-22T09:22:58.843Z,45.20
2022-08-22T09:28:17.878Z,42.10
2022-08-22T09:33:32.037Z,41.10
2022-08-22T09:38:51.258Z,38.30
2022-08-22T09:40:16.304Z,39.10
2022-08-22T09:44:13.464Z,45.40
2022-08-22T09:49:29.523Z,42.60
2022-08-22T09:54:44.904Z,47.10
2022-08-22T10:00:22.052Z,48.00
2022-08-22T10:05:44.415Z,51.00
2022-08-22T10:11:17.643Z,64.10
2022-08-22T10:16:35.073Z,52.30
2022-08-22T10:22:08.875Z,35.00
2022-08-22T10:27:19.776Z,37.50
2022-08-22T10:32:40.048Z,49.00
2022-08-22T10:37:59.207Z,42.00
2022-08-22T10:43:13.281Z,43.30
2022-08-22T10:48:41.261Z,43.60
2022-08-22T10:54:19.828Z,44.70
2022-08-22T10:59:39.388Z,38.90
2022-08-22T11:05:08.584Z,34.60
2022-08-22T11:10:25.922Z,42.90
2022-08-22T11:15:57.405Z,40.40
2022-08-22T11:21:09.786Z,48.20
2022-08-22T11:26:46.672Z,42.50
2022-08-22T11:32:06.697Z,47.40
2022-08-22T11:37:42.682Z,52.80
2022-08-22T11:42:59.082Z,49.50
2022-08-22T11:48:18.080Z,51.60
2022-08-22T11:53:35.261Z,56.30
2022-08-22T11:59:02.452Z,62.50
2022-08-22T12:04:18.661Z,52.60
2022-08-22T12:09:50.747Z,42.60
2022-08-22T12:15:08.877Z,47.10
2022-08-22T12:20:33.247Z,40.10
2022-08-22T12:25:58.584Z,39.10
2022-08-22T12:31:16.249Z,45.50
2022-08-22T12:36:41.523Z,41.30
2022-08-22T12:42:18.046Z,36.10
2022-08-22T12:47:45.363Z,40.60
2022-08-22T12:53:10.886Z,48.00
2022-08-22T12:58:34.103Z,44.90
2022-08-22T13:03:48.665Z,40.40
2022-08-22T13:08:56.139Z,42.40
2022-08-22T13:14:04.473Z,40.90
2022-08-22T13:19:18.740Z,38.00
2022-08-22T13:24:38.894Z,41.60
2022-08-22T13:29:53.317Z,40.70
2022-08-22T13:35:01.331Z,43.30
2022-08-22T13:40:14.252Z,38.90
2022-08-22T13:45:28.936Z,37.60
2022-08-22T13:50:53.656Z,40.70
2022-08-22T13:56:15.876Z,41.20
2022-08-22T14:01:35.898Z,40.80
2022-08-22T14:06:52.994Z,37.50
2022-08-22T14:12:12.210Z,37.00
2022-08-22T14:17:24.415Z,40.30
2022-08-22T14:22:35.032Z,33.30
2022-08-22T14:28:01.054Z,31.60
2022-08-22T14:33:21.353Z,36.50
2022-08-22T14:38:38.375Z,34.50
2022-08-22T14:43:57.100Z,41.50
2022-08-22T14:49:28.756Z,39.40
2022-08-22T14:54:37.472Z,34.80
2022-08-22T14:59:50.587Z,39.30
2022-08-22T15:05:01.927Z,34.60
2022-08-22T15:10:22.707Z,39.30
2022-08-22T15:15:41.285Z,37.70
2022-08-22T15:21:08.909Z,32.20
2022-08-22T15:26:28.506Z,30.90
2022-08-22T15:31:39.638Z,39.10
2022-08-22T15:37:28.634Z,34.10
2022-08-22T15:42:38.570Z,33.00
2022-08-22T15:47:52.585Z,32.30
2022-08-22T15:53:15.996Z,34.80
2022-08-22T15:58:25.939Z,30.40
2022-08-22T16:03:35.408Z,30.70
2022-08-22T16:08:52.311Z,33.00
2022-08-22T16:14:21.754Z,32.80
2022-08-22T16:19:30.261Z,34.90
2022-08-22T16:24:59.583Z,35.00
2022-08-22T16:30:17.686Z,33.30
2022-08-22T16:35:58.867Z,39.30
2022-08-22T16:41:06.496Z,36.30
2022-08-22T16:52:18.334Z,37.60
2022-08-22T16:57:31.423Z,45.20
2022-08-22T17:02:59.160Z,47.70
2022-08-22T17:08:21.261Z,41.40
2022-08-22T17:13:48.564Z,44.00
2022-08-22T17:24:31.946Z,44.10
2022-08-22T17:30:00.570Z,48.40
2022-08-22T17:35:19.415Z,54.50
2022-08-22T17:40:35.477Z,55.20
2022-08-22T17:46:01.571Z,52.20
2022-08-22T17:51:28.271Z,53.40
2022-08-22T17:56:45.515Z,61.70
2022-08-22T18:02:00.285Z,64.40
2022-08-22T18:07:41.401Z,69.80
2022-08-22T18:12:55.899Z,63.40
2022-08-22T18:18:07.778Z,61.70
2022-08-22T18:23:38.981Z,71.40
2022-08-22T18:28:55.616Z,62.60
2022-08-22T18:34:09.454Z,70.00
2022-08-22T18:39:23.242Z,73.60
2022-08-22T18:44:33.257Z,70.50
2022-08-22T18:49:44.290Z,78.30
2022-08-22T18:55:08.611Z,69.10
2022-08-22T19:00:19.011Z,73.30
2022-08-22T19:05:57.105Z,60.80
2022-08-22T19:11:24.530Z,59.20
2022-08-22T19:16:52.235Z,71.90
2022-08-22T19:22:27.000Z,63.50
2022-08-22T19:27:36.144Z,59.90
2022-08-22T19:33:07.740Z,46.40
2022-08-22T19:38:35.286Z,45.00
2022-08-22T19:43:44.695Z,40.50
2022-08-22T19:48:53.271Z,36.10
2022-08-22T19:54:23.001Z,38.00
2022-08-22T19:59:50.528Z,32.40
2022-08-22T20:05:28.649Z,32.80
2022-08-22T20:10:49.754Z,35.90
2022-08-22T20:16:23.758Z,30.10
2022-08-22T20:21:51.231Z,24.40
2022-08-22T20:27:13.792Z,24.20
2022-08-22T20:32:26.270Z,21.10
2022-08-22T20:38:05.218Z,19.10
2022-08-22T20:43:10.960Z,17.30
2022-08-22T20:48:18.067Z,18.20
2022-08-22T20:53:25.410Z,13.40
2022-08-22T20:58:48.606Z,10.90
2022-08-22T21:03:57.852Z,16.20
2022-08-22T21:09:35.238Z,11.30
2022-08-22T21:14:46.351Z,10.10
2022-08-22T21:19:53.809Z,12.70
2022-08-22T21:25:05.320Z,11.00
2022-08-22T21:30:22.902Z,12.20
2022-08-22T21:35:33.140Z,13.20
2022-08-22T21:40:40.838Z,13.40
2022-08-22T21:45:48.187Z,13.80
2022-08-22T21:50:55.126Z,13.50
2022-08-22T21:56:16.386Z,13.10
2022-08-22T22:01:31.766Z,9.80
2022-08-22T22:06:39.372Z,17.10
2022-08-22T22:11:46.619Z,14.30
2022-08-22T22:16:53.781Z,12.60
2022-08-22T22:22:00.768Z,11.60
2022-08-22T22:27:09.615Z,10.60
2022-08-22T22:32:18.749Z,10.20
2022-08-22T22:37:26.479Z,10.20
2022-08-22T22:42:33.652Z,12.80
2022-08-22T22:47:40.801Z,9.90
2022-08-22T22:52:47.918Z,11.70
2022-08-22T22:57:59.088Z,11.70
2022-08-22T23:03:08.448Z,13.60
2022-08-22T23:08:15.767Z,11.90
2022-08-22T23:13:23.559Z,12.40
2022-08-22T23:18:32.576Z,11.10
2022-08-22T23:23:41.043Z,12.80
2022-08-22T23:28:48.171Z,12.70
2022-08-22T23:33:55.754Z,11.50
2022-08-22T23:39:02.863Z,14.10
2022-08-22T23:44:13.650Z,15.50
2022-08-22T23:49:21.468Z,17.60
2022-08-22T23:54:29.669Z,14.30
2022-08-22T23:59:38.548Z,14.20
